sensor_id;sensor_type;location;lat;lon;timestamp;pressure;altitude;pressure_sealevel;temperature;humidity
43820;BME280;67762;52.476;6.046;2023-04-21T00:02:06;101625.22;;;8.47;83.06
43820;BME280;67762;52.476;6.046;2023-04-21T00:04:32;101617.09;;;8.48;83.53
43820;BME280;67762;52.476;6.046;2023-04-21T00:06:57;101607.28;;;8.49;83.04
43820;BME280;67762;52.476;6.046;2023-04-21T00:09:26;101596.78;;;8.47;83.45
43820;BME280;67762;52.476;6.046;2023-04-21T00:11:52;101602.09;;;8.47;83.90
43820;BME280;67762;52.476;6.046;2023-04-21T00:14:18;101591.44;;;8.47;83.21
43820;BME280;67762;52.476;6.046;2023-04-21T00:16:44;101585.16;;;8.48;84.14
43820;BME280;67762;52.476;6.046;2023-04-21T00:19:10;101579.72;;;8.50;84.24
43820;BME280;67762;52.476;6.046;2023-04-21T00:21:38;101570.50;;;8.54;83.57
43820;BME280;67762;52.476;6.046;2023-04-21T00:24:04;101556.25;;;8.55;83.63
43820;BME280;67762;52.476;6.046;2023-04-21T00:26:30;101554.28;;;8.57;84.69
43820;BME280;67762;52.476;6.046;2023-04-21T00:28:56;101553.88;;;8.61;84.03
43820;BME280;67762;52.476;6.046;2023-04-21T00:31:22;101538.75;;;8.62;84.70
43820;BME280;67762;52.476;6.046;2023-04-21T00:33:48;101542.97;;;8.64;84.75
43820;BME280;67762;52.476;6.046;2023-04-21T00:36:13;101549.81;;;8.67;84.33
43820;BME280;67762;52.476;6.046;2023-04-21T00:38:39;101542.44;;;8.70;85.06
43820;BME280;67762;52.476;6.046;2023-04-21T00:41:06;101542.84;;;8.75;84.95
43820;BME280;67762;52.476;6.046;2023-04-21T00:43:32;101531.09;;;8.78;84.67
43820;BME280;67762;52.476;6.046;2023-04-21T00:45:58;101527.47;;;8.79;84.60
43820;BME280;67762;52.476;6.046;2023-04-21T00:48:23;101521.88;;;8.82;85.22
43820;BME280;67762;52.476;6.046;2023-04-21T00:50:49;101513.75;;;8.83;84.59
43820;BME280;67762;52.476;6.046;2023-04-21T00:53:16;101505.66;;;8.85;85.26
43820;BME280;67762;52.476;6.046;2023-04-21T00:55:44;101500.31;;;8.85;84.55
43820;BME280;67762;52.476;6.046;2023-04-21T00:58:10;101504.53;;;8.88;85.23
43820;BME280;67762;52.476;6.046;2023-04-21T01:00:36;101492.88;;;8.89;85.17
43820;BME280;67762;52.476;6.046;2023-04-21T01:03:05;101500.88;;;8.89;85.05
43820;BME280;67762;52.476;6.046;2023-04-21T01:05:31;101498.34;;;8.87;84.84
43820;BME280;67762;52.476;6.046;2023-04-21T01:07:57;101486.88;;;8.87;84.99
43820;BME280;67762;52.476;6.046;2023-04-21T01:10:23;101487.03;;;8.85;85.32
43820;BME280;67762;52.476;6.046;2023-04-21T01:12:50;101502.13;;;8.85;84.65
43820;BME280;67762;52.476;6.046;2023-04-21T01:15:17;101500.59;;;8.82;85.03
43820;BME280;67762;52.476;6.046;2023-04-21T01:17:43;101495.28;;;8.82;85.32
43820;BME280;67762;52.476;6.046;2023-04-21T01:20:13;101502.56;;;8.80;85.38
43820;BME280;67762;52.476;6.046;2023-04-21T01:22:40;101487.84;;;8.76;85.39
43820;BME280;67762;52.476;6.046;2023-04-21T01:25:07;101499.44;;;8.75;85.38
43820;BME280;67762;52.476;6.046;2023-04-21T01:27:34;101492.47;;;8.74;84.87
43820;BME280;67762;52.476;6.046;2023-04-21T01:30:01;101506.88;;;8.71;85.42
43820;BME280;67762;52.476;6.046;2023-04-21T01:32:29;101505.34;;;8.69;84.98
43820;BME280;67762;52.476;6.046;2023-04-21T01:34:56;101508.25;;;8.66;85.02
43820;BME280;67762;52.476;6.046;2023-04-21T01:37:25;101502.22;;;8.64;84.89
43820;BME280;67762;52.476;6.046;2023-04-21T01:39:54;101499.44;;;8.65;84.88
43820;BME280;67762;52.476;6.046;2023-04-21T01:42:22;101505.03;;;8.72;85.29
43820;BME280;67762;52.476;6.046;2023-04-21T01:44:48;101504.63;;;8.76;85.41
43820;BME280;67762;52.476;6.046;2023-04-21T01:47:16;101499.91;;;8.80;85.07
43820;BME280;67762;52.476;6.046;2023-04-21T01:49:42;101497.66;;;8.85;85.15
43820;BME280;67762;52.476;6.046;2023-04-21T01:52:08;101501.59;;;8.91;85.48
43820;BME280;67762;52.476;6.046;2023-04-21T01:54:34;101501.19;;;8.95;85.12
43820;BME280;67762;52.476;6.046;2023-04-21T01:57:00;101507.06;;;8.99;85.33
43820;BME280;67762;52.476;6.046;2023-04-21T01:59:26;101503.13;;;9.03;85.09
43820;BME280;67762;52.476;6.046;2023-04-21T02:01:52;101499.25;;;9.07;85.40
43820;BME280;67762;52.476;6.046;2023-04-21T02:04:18;101500.78;;;9.09;84.62
43820;BME280;67762;52.476;6.046;2023-04-21T02:06:43;101506.53;;;9.14;85.32
43820;BME280;67762;52.476;6.046;2023-04-21T02:09:09;101499.22;;;9.16;85.27
43820;BME280;67762;52.476;6.046;2023-04-21T02:11:35;101498.25;;;9.17;84.79
43820;BME280;67762;52.476;6.046;2023-04-21T02:14:01;101505.13;;;9.20;84.83
43820;BME280;67762;52.476;6.046;2023-04-21T02:16:27;101497.03;;;9.21;84.97
43820;BME280;67762;52.476;6.046;2023-04-21T02:18:54;101504.84;;;9.23;84.88
43820;BME280;67762;52.476;6.046;2023-04-21T02:21:22;101510.06;;;9.24;84.69
43820;BME280;67762;52.476;6.046;2023-04-21T02:23:48;101504.44;;;9.27;84.81
43820;BME280;67762;52.476;6.046;2023-04-21T02:26:14;101504.31;;;9.29;84.77
43820;BME280;67762;52.476;6.046;2023-04-21T02:28:40;101506.00;;;9.30;85.19
43820;BME280;67762;52.476;6.046;2023-04-21T02:31:06;101511.16;;;9.31;84.75
43820;BME280;67762;52.476;6.046;2023-04-21T02:33:33;101504.72;;;9.34;84.56
43820;BME280;67762;52.476;6.046;2023-04-21T02:35:58;101499.41;;;9.34;84.76
43820;BME280;67762;52.476;6.046;2023-04-21T02:38:24;101503.03;;;9.33;84.61
43820;BME280;67762;52.476;6.046;2023-04-21T02:40:49;101495.88;;;9.33;84.75
43820;BME280;67762;52.476;6.046;2023-04-21T02:43:17;101495.03;;;9.33;84.63
43820;BME280;67762;52.476;6.046;2023-04-21T02:45:43;101489.88;;;9.31;84.78
43820;BME280;67762;52.476;6.046;2023-04-21T02:48:09;101496.16;;;9.30;84.80
43820;BME280;67762;52.476;6.046;2023-04-21T02:50:35;101498.81;;;9.30;84.85
43820;BME280;67762;52.476;6.046;2023-04-21T02:53:00;101505.16;;;9.29;84.79
43820;BME280;67762;52.476;6.046;2023-04-21T02:55:26;101492.69;;;9.30;84.57
43820;BME280;67762;52.476;6.046;2023-04-21T02:57:52;101496.31;;;9.29;84.83
43820;BME280;67762;52.476;6.046;2023-04-21T03:00:21;101495.34;;;9.30;84.57
43820;BME280;67762;52.476;6.046;2023-04-21T03:02:46;101490.72;;;9.32;84.38
43820;BME280;67762;52.476;6.046;2023-04-21T03:05:12;101503.75;;;9.35;84.65
43820;BME280;67762;52.476;6.046;2023-04-21T03:07:38;101502.63;;;9.37;85.01
43820;BME280;67762;52.476;6.046;2023-04-21T03:10:05;101505.13;;;9.39;84.34
43820;BME280;67762;52.476;6.046;2023-04-21T03:12:31;101508.53;;;9.41;84.92
43820;BME280;67762;52.476;6.046;2023-04-21T03:14:57;101505.72;;;9.43;84.67
43820;BME280;67762;52.476;6.046;2023-04-21T03:17:24;101511.72;;;9.45;84.40
43820;BME280;67762;52.476;6.046;2023-04-21T03:19:50;101514.38;;;9.45;84.91
43820;BME280;67762;52.476;6.046;2023-04-21T03:22:15;101511.59;;;9.46;84.57
43820;BME280;67762;52.476;6.046;2023-04-21T03:24:41;101511.59;;;9.46;84.54
43820;BME280;67762;52.476;6.046;2023-04-21T03:27:07;101508.78;;;9.48;84.48
43820;BME280;67762;52.476;6.046;2023-04-21T03:29:34;101511.31;;;9.49;84.39
43820;BME280;67762;52.476;6.046;2023-04-21T03:32:00;101512.13;;;9.50;84.92
43820;BME280;67762;52.476;6.046;2023-04-21T03:34:27;101517.47;;;9.50;84.70
43820;BME280;67762;52.476;6.046;2023-04-21T03:36:53;101520.00;;;9.51;84.40
43820;BME280;67762;52.476;6.046;2023-04-21T03:39:20;101510.19;;;9.52;85.07
43820;BME280;67762;52.476;6.046;2023-04-21T03:41:47;101509.19;;;9.53;84.64
43820;BME280;67762;52.476;6.046;2023-04-21T03:44:13;101516.22;;;9.54;84.78
43820;BME280;67762;52.476;6.046;2023-04-21T03:46:38;101516.06;;;9.55;84.57
43820;BME280;67762;52.476;6.046;2023-04-21T03:49:05;101511.59;;;9.56;84.54
43820;BME280;67762;52.476;6.046;2023-04-21T03:51:31;101513.28;;;9.57;84.71
43820;BME280;67762;52.476;6.046;2023-04-21T03:53:57;101514.13;;;9.57;84.79
43820;BME280;67762;52.476;6.046;2023-04-21T03:56:23;101521.13;;;9.58;84.59
43820;BME280;67762;52.476;6.046;2023-04-21T03:58:49;101505.13;;;9.58;84.75
43820;BME280;67762;52.476;6.046;2023-04-21T04:01:15;101516.63;;;9.59;84.76
43820;BME280;67762;52.476;6.046;2023-04-21T04:03:41;101514.81;;;9.59;84.84
43820;BME280;67762;52.476;6.046;2023-04-21T04:06:06;101510.34;;;9.60;84.79
43820;BME280;67762;52.476;6.046;2023-04-21T04:08:32;101513.84;;;9.60;84.91
43820;BME280;67762;52.476;6.046;2023-04-21T04:10:58;101507.66;;;9.60;84.81
43820;BME280;67762;52.476;6.046;2023-04-21T04:13:24;101505.69;;;9.62;84.93
43820;BME280;67762;52.476;6.046;2023-04-21T04:15:51;101503.03;;;9.62;84.91
43820;BME280;67762;52.476;6.046;2023-04-21T04:18:17;101510.19;;;9.61;85.29
43820;BME280;67762;52.476;6.046;2023-04-21T04:20:43;101494.19;;;9.61;85.05
43820;BME280;67762;52.476;6.046;2023-04-21T04:23:08;101495.03;;;9.62;84.70
43820;BME280;67762;52.476;6.046;2023-04-21T04:25:34;101499.53;;;9.61;84.99
43820;BME280;67762;52.476;6.046;2023-04-21T04:28:01;101502.06;;;9.63;85.14
43820;BME280;67762;52.476;6.046;2023-04-21T04:30:27;101499.53;;;9.61;84.95
43820;BME280;67762;52.476;6.046;2023-04-21T04:32:53;101488.88;;;9.61;85.01
43820;BME280;67762;52.476;6.046;2023-04-21T04:35:22;101485.22;;;9.62;84.93
43820;BME280;67762;52.476;6.046;2023-04-21T04:37:48;101490.56;;;9.62;84.96
43820;BME280;67762;52.476;6.046;2023-04-21T04:40:14;101493.06;;;9.64;85.39
43820;BME280;67762;52.476;6.046;2023-04-21T04:42:40;101497.41;;;9.65;85.24
43820;BME280;67762;52.476;6.046;2023-04-21T04:45:07;101499.13;;;9.66;85.53
43820;BME280;67762;52.476;6.046;2023-04-21T04:47:36;101497.16;;;9.68;85.09
43820;BME280;67762;52.476;6.046;2023-04-21T04:50:03;101503.16;;;9.70;85.13
43820;BME280;67762;52.476;6.046;2023-04-21T04:52:29;101504.00;;;9.70;85.21
43820;BME280;67762;52.476;6.046;2023-04-21T04:54:55;101508.38;;;9.71;85.18
43820;BME280;67762;52.476;6.046;2023-04-21T04:57:21;101510.03;;;9.72;85.65
43820;BME280;67762;52.476;6.046;2023-04-21T04:59:47;101510.88;;;9.73;85.25
43820;BME280;67762;52.476;6.046;2023-04-21T05:02:12;101516.19;;;9.73;85.13
43820;BME280;67762;52.476;6.046;2023-04-21T05:04:38;101507.53;;;9.71;85.15
43820;BME280;67762;52.476;6.046;2023-04-21T05:07:04;101502.19;;;9.71;85.18
43820;BME280;67762;52.476;6.046;2023-04-21T05:09:33;101513.69;;;9.71;85.18
43820;BME280;67762;52.476;6.046;2023-04-21T05:11:59;101510.19;;;9.71;85.10
43820;BME280;67762;52.476;6.046;2023-04-21T05:14:26;101508.38;;;9.71;85.15
43820;BME280;67762;52.476;6.046;2023-04-21T05:16:52;101518.19;;;9.71;85.35
43820;BME280;67762;52.476;6.046;2023-04-21T05:19:18;101512.97;;;9.69;85.10
43820;BME280;67762;52.476;6.046;2023-04-21T05:21:43;101512.16;;;9.69;85.10
43820;BME280;67762;52.476;6.046;2023-04-21T05:24:09;101517.50;;;9.69;85.17
43820;BME280;67762;52.476;6.046;2023-04-21T05:26:35;101516.50;;;9.70;85.23
43820;BME280;67762;52.476;6.046;2023-04-21T05:29:02;101512.97;;;9.69;85.15
43820;BME280;67762;52.476;6.046;2023-04-21T05:31:27;101520.84;;;9.71;85.32
43820;BME280;67762;52.476;6.046;2023-04-21T05:33:53;101515.34;;;9.72;85.19
43820;BME280;67762;52.476;6.046;2023-04-21T05:36:19;101508.09;;;9.74;85.16
43820;BME280;67762;52.476;6.046;2023-04-21T05:38:45;101494.59;;;9.76;85.23
43820;BME280;67762;52.476;6.046;2023-04-21T05:41:11;101494.31;;;9.79;85.14
43820;BME280;67762;52.476;6.046;2023-04-21T05:43:37;101500.22;;;9.82;85.11
43820;BME280;67762;52.476;6.046;2023-04-21T05:46:07;101510.72;;;9.84;85.07
43820;BME280;67762;52.476;6.046;2023-04-21T05:48:34;101513.66;;;9.90;85.12
43820;BME280;67762;52.476;6.046;2023-04-21T05:51:13;101522.19;;;9.94;85.13
43820;BME280;67762;52.476;6.046;2023-04-21T05:53:40;101527.25;;;9.97;85.13
43820;BME280;67762;52.476;6.046;2023-04-21T05:56:10;101523.44;;;9.99;85.11
43820;BME280;67762;52.476;6.046;2023-04-21T05:58:37;101520.66;;;10.01;84.85
43820;BME280;67762;52.476;6.046;2023-04-21T06:01:03;101528.38;;;10.04;85.22
43820;BME280;67762;52.476;6.046;2023-04-21T06:03:30;101530.59;;;10.09;85.38
43820;BME280;67762;52.476;6.046;2023-04-21T06:05:59;101534.69;;;10.13;85.00
43820;BME280;67762;52.476;6.046;2023-04-21T06:08:25;101530.75;;;10.17;84.52
43820;BME280;67762;52.476;6.046;2023-04-21T06:10:51;101534.66;;;10.22;85.01
43820;BME280;67762;52.476;6.046;2023-04-21T06:13:16;101529.88;;;10.26;85.01
43820;BME280;67762;52.476;6.046;2023-04-21T06:15:42;101525.78;;;10.31;84.66
43820;BME280;67762;52.476;6.046;2023-04-21T06:18:08;101528.34;;;10.33;84.50
43820;BME280;67762;52.476;6.046;2023-04-21T06:20:33;101524.25;;;10.38;84.85
43820;BME280;67762;52.476;6.046;2023-04-21T06:22:59;101526.84;;;10.48;84.50
43820;BME280;67762;52.476;6.046;2023-04-21T06:25:25;101525.53;;;10.62;84.64
43820;BME280;67762;52.476;6.046;2023-04-21T06:27:51;101523.69;;;10.72;84.87
43820;BME280;67762;52.476;6.046;2023-04-21T06:30:17;101524.59;;;10.80;84.49
43820;BME280;67762;52.476;6.046;2023-04-21T06:32:42;101520.75;;;10.92;84.98
43820;BME280;67762;52.476;6.046;2023-04-21T06:35:10;101512.16;;;11.16;84.64
43820;BME280;67762;52.476;6.046;2023-04-21T06:37:36;101517.66;;;11.50;84.79
43820;BME280;67762;52.476;6.046;2023-04-21T06:40:02;101514.91;;;11.59;84.59
43820;BME280;67762;52.476;6.046;2023-04-21T06:42:28;101516.38;;;11.54;83.69
43820;BME280;67762;52.476;6.046;2023-04-21T06:44:54;101517.72;;;11.58;84.16
43820;BME280;67762;52.476;6.046;2023-04-21T06:47:20;101504.06;;;11.61;84.36
43820;BME280;67762;52.476;6.046;2023-04-21T06:49:46;101506.22;;;11.57;83.05
43820;BME280;67762;52.476;6.046;2023-04-21T06:52:12;101499.00;;;11.58;83.15
43820;BME280;67762;52.476;6.046;2023-04-21T06:54:38;101490.63;;;11.53;82.85
43820;BME280;67762;52.476;6.046;2023-04-21T06:57:04;101503.78;;;11.46;83.09
43820;BME280;67762;52.476;6.046;2023-04-21T06:59:31;101493.22;;;11.45;83.11
43820;BME280;67762;52.476;6.046;2023-04-21T07:01:57;101499.88;;;11.41;83.19
43820;BME280;67762;52.476;6.046;2023-04-21T07:04:23;101494.00;;;11.37;83.01
43820;BME280;67762;52.476;6.046;2023-04-21T07:06:48;101494.47;;;11.33;82.38
43820;BME280;67762;52.476;6.046;2023-04-21T07:09:14;101497.19;;;11.23;82.89
43820;BME280;67762;52.476;6.046;2023-04-21T07:11:40;101506.13;;;11.14;81.96
43820;BME280;67762;52.476;6.046;2023-04-21T07:14:05;101505.59;;;11.10;81.57
43820;BME280;67762;52.476;6.046;2023-04-21T07:16:31;101509.25;;;11.09;82.21
43820;BME280;67762;52.476;6.046;2023-04-21T07:18:57;101484.66;;;11.06;82.17
43820;BME280;67762;52.476;6.046;2023-04-21T07:21:23;101493.06;;;10.93;82.60
43820;BME280;67762;52.476;6.046;2023-04-21T07:23:49;101505.19;;;10.88;82.57
43820;BME280;67762;52.476;6.046;2023-04-21T07:26:14;101503.78;;;10.84;82.68
43820;BME280;67762;52.476;6.046;2023-04-21T07:28:42;101514.63;;;10.82;83.09
43820;BME280;67762;52.476;6.046;2023-04-21T07:31:07;101510.13;;;10.83;82.68
43820;BME280;67762;52.476;6.046;2023-04-21T07:33:33;101500.97;;;10.85;83.06
43820;BME280;67762;52.476;6.046;2023-04-21T07:35:59;101497.00;;;10.89;82.74
43820;BME280;67762;52.476;6.046;2023-04-21T07:38:25;101503.75;;;10.93;82.48
43820;BME280;67762;52.476;6.046;2023-04-21T07:40:51;101507.25;;;10.94;82.67
43820;BME280;67762;52.476;6.046;2023-04-21T07:43:17;101502.59;;;10.96;82.51
43820;BME280;67762;52.476;6.046;2023-04-21T07:45:44;101505.94;;;10.98;82.82
43820;BME280;67762;52.476;6.046;2023-04-21T07:48:10;101498.31;;;11.03;83.38
43820;BME280;67762;52.476;6.046;2023-04-21T07:50:36;101497.88;;;11.07;82.82
43820;BME280;67762;52.476;6.046;2023-04-21T07:53:02;101496.16;;;11.16;83.46
43820;BME280;67762;52.476;6.046;2023-04-21T07:55:28;101496.72;;;11.28;83.21
43820;BME280;67762;52.476;6.046;2023-04-21T07:57:54;101494.59;;;11.31;83.20
43820;BME280;67762;52.476;6.046;2023-04-21T08:00:20;101497.50;;;11.38;83.25
43820;BME280;67762;52.476;6.046;2023-04-21T08:02:46;101498.72;;;11.43;82.15
43820;BME280;67762;52.476;6.046;2023-04-21T08:05:12;101494.06;;;11.45;83.12
43820;BME280;67762;52.476;6.046;2023-04-21T08:07:37;101496.44;;;11.48;82.15
43820;BME280;67762;52.476;6.046;2023-04-21T08:10:05;101492.84;;;11.57;81.93
43820;BME280;67762;52.476;6.046;2023-04-21T08:12:31;101498.69;;;11.61;82.71
43820;BME280;67762;52.476;6.046;2023-04-21T08:14:56;101503.59;;;11.65;82.71
43820;BME280;67762;52.476;6.046;2023-04-21T08:17:22;101514.69;;;11.70;82.61
43820;BME280;67762;52.476;6.046;2023-04-21T08:19:48;101507.22;;;11.74;81.62
43820;BME280;67762;52.476;6.046;2023-04-21T08:22:14;101501.09;;;11.82;81.77
43820;BME280;67762;52.476;6.046;2023-04-21T08:24:39;101504.81;;;11.89;82.53
43820;BME280;67762;52.476;6.046;2023-04-21T08:27:05;101497.78;;;11.88;82.64
43820;BME280;67762;52.476;6.046;2023-04-21T08:29:31;101498.28;;;11.91;82.45
43820;BME280;67762;52.476;6.046;2023-04-21T08:31:57;101499.50;;;11.97;81.74
43820;BME280;67762;52.476;6.046;2023-04-21T08:34:22;101510.44;;;12.03;81.31
43820;BME280;67762;52.476;6.046;2023-04-21T08:36:49;101505.31;;;12.10;82.51
43820;BME280;67762;52.476;6.046;2023-04-21T08:39:15;101507.19;;;12.17;81.66
43820;BME280;67762;52.476;6.046;2023-04-21T08:41:41;101496.00;;;12.22;81.99
43820;BME280;67762;52.476;6.046;2023-04-21T08:44:09;101494.06;;;12.32;82.39
43820;BME280;67762;52.476;6.046;2023-04-21T08:46:39;101495.28;;;12.46;81.42
43820;BME280;67762;52.476;6.046;2023-04-21T08:49:08;101486.69;;;12.68;81.14
43820;BME280;67762;52.476;6.046;2023-04-21T08:51:34;101493.09;;;12.83;81.47
43820;BME280;67762;52.476;6.046;2023-04-21T08:54:00;101489.63;;;12.90;80.48
43820;BME280;67762;52.476;6.046;2023-04-21T08:56:27;101489.97;;;12.96;81.13
43820;BME280;67762;52.476;6.046;2023-04-21T08:58:53;101497.16;;;12.95;81.15
43820;BME280;67762;52.476;6.046;2023-04-21T09:01:19;101486.63;;;12.94;80.61
43820;BME280;67762;52.476;6.046;2023-04-21T09:03:45;101483.63;;;12.97;79.87
43820;BME280;67762;52.476;6.046;2023-04-21T09:06:11;101490.97;;;13.03;80.59
43820;BME280;67762;52.476;6.046;2023-04-21T09:09:27;101490.03;;;13.12;79.90
43820;BME280;67762;52.476;6.046;2023-04-21T09:12:20;101499.22;;;13.09;80.39
43820;BME280;67762;52.476;6.046;2023-04-21T09:14:49;101488.47;;;13.01;79.66
43820;BME280;67762;52.476;6.046;2023-04-21T09:17:20;101491.66;;;12.97;79.59
43820;BME280;67762;52.476;6.046;2023-04-21T09:20:12;101495.63;;;12.93;79.78
43820;BME280;67762;52.476;6.046;2023-04-21T09:22:39;101487.94;;;12.98;79.67
43820;BME280;67762;52.476;6.046;2023-04-21T09:25:05;101483.09;;;12.93;79.10
43820;BME280;67762;52.476;6.046;2023-04-21T09:27:35;101475.91;;;12.94;78.58
43820;BME280;67762;52.476;6.046;2023-04-21T09:30:04;101484.59;;;12.96;79.11
43820;BME280;67762;52.476;6.046;2023-04-21T09:32:36;101478.91;;;12.90;79.09
43820;BME280;67762;52.476;6.046;2023-04-21T09:35:02;101494.78;;;12.84;78.85
43820;BME280;67762;52.476;6.046;2023-04-21T09:37:57;101492.59;;;12.79;78.91
43820;BME280;67762;52.476;6.046;2023-04-21T09:40:30;101485.56;;;12.78;78.47
43820;BME280;67762;52.476;6.046;2023-04-21T09:42:57;101489.41;;;12.76;79.10
43820;BME280;67762;52.476;6.046;2023-04-21T09:45:28;101484.03;;;12.76;78.42
43820;BME280;67762;52.476;6.046;2023-04-21T09:47:56;101486.22;;;12.80;78.93
43820;BME280;67762;52.476;6.046;2023-04-21T09:50:24;101481.06;;;12.87;78.89
43820;BME280;67762;52.476;6.046;2023-04-21T09:52:52;101471.03;;;12.97;78.57
43820;BME280;67762;52.476;6.046;2023-04-21T09:55:27;101478.78;;;13.08;79.31
43820;BME280;67762;52.476;6.046;2023-04-21T09:57:59;101476.81;;;13.18;78.92
43820;BME280;67762;52.476;6.046;2023-04-21T10:10:25;101477.16;;;13.47;78.92
43820;BME280;67762;52.476;6.046;2023-04-21T10:14:09;101465.94;;;13.68;78.83
43820;BME280;67762;52.476;6.046;2023-04-21T10:16:35;101463.22;;;13.92;78.78
43820;BME280;67762;52.476;6.046;2023-04-21T10:19:21;101456.78;;;14.18;78.22
43820;BME280;67762;52.476;6.046;2023-04-21T10:21:48;101463.13;;;14.41;78.26
43820;BME280;67762;52.476;6.046;2023-04-21T10:24:14;101454.69;;;14.52;77.93
43820;BME280;67762;52.476;6.046;2023-04-21T10:26:40;101457.31;;;14.68;77.34
43820;BME280;67762;52.476;6.046;2023-04-21T10:29:06;101455.88;;;14.80;76.72
43820;BME280;67762;52.476;6.046;2023-04-21T10:31:49;101460.56;;;14.86;76.46
43820;BME280;67762;52.476;6.046;2023-04-21T10:34:17;101457.81;;;14.94;76.40
43820;BME280;67762;52.476;6.046;2023-04-21T10:39:51;101449.66;;;14.88;75.69
43820;BME280;67762;52.476;6.046;2023-04-21T10:42:18;101454.13;;;14.95;76.33
43820;BME280;67762;52.476;6.046;2023-04-21T10:47:29;101436.66;;;14.91;75.83
43820;BME280;67762;52.476;6.046;2023-04-21T10:50:14;101438.22;;;14.86;75.30
43820;BME280;67762;52.476;6.046;2023-04-21T10:52:43;101437.56;;;14.84;75.72
43820;BME280;67762;52.476;6.046;2023-04-21T10:55:09;101439.75;;;14.80;75.28
43820;BME280;67762;52.476;6.046;2023-04-21T10:57:40;101439.09;;;14.78;74.98
43820;BME280;67762;52.476;6.046;2023-04-21T11:00:06;101442.09;;;14.83;75.58
43820;BME280;67762;52.476;6.046;2023-04-21T11:02:33;101436.41;;;14.78;75.58
43820;BME280;67762;52.476;6.046;2023-04-21T11:05:00;101431.41;;;14.75;75.41
43820;BME280;67762;52.476;6.046;2023-04-21T11:07:26;101431.69;;;14.80;75.59
43820;BME280;67762;52.476;6.046;2023-04-21T11:10:04;101426.97;;;14.90;74.71
43820;BME280;67762;52.476;6.046;2023-04-21T11:12:35;101423.56;;;14.96;75.07
43820;BME280;67762;52.476;6.046;2023-04-21T11:15:03;101434.06;;;15.06;75.32
43820;BME280;67762;52.476;6.046;2023-04-21T11:17:31;101423.59;;;15.11;74.87
43820;BME280;67762;52.476;6.046;2023-04-21T11:19:57;101425.09;;;15.13;74.72
43820;BME280;67762;52.476;6.046;2023-04-21T11:22:23;101410.09;;;15.19;74.41
43820;BME280;67762;52.476;6.046;2023-04-21T11:24:53;101396.97;;;15.24;74.18
43820;BME280;67762;52.476;6.046;2023-04-21T11:27:19;101405.44;;;15.36;73.96
43820;BME280;67762;52.476;6.046;2023-04-21T11:29:47;101393.66;;;15.37;73.41
43820;BME280;67762;52.476;6.046;2023-04-21T11:32:14;101391.81;;;15.37;73.21
43820;BME280;67762;52.476;6.046;2023-04-21T11:34:40;101389.78;;;15.39;72.64
43820;BME280;67762;52.476;6.046;2023-04-21T11:37:07;101388.09;;;15.38;72.81
43820;BME280;67762;52.476;6.046;2023-04-21T11:39:33;101384.75;;;15.36;73.05
43820;BME280;67762;52.476;6.046;2023-04-21T11:41:58;101391.63;;;15.39;72.63
43820;BME280;67762;52.476;6.046;2023-04-21T11:46:56;101388.44;;;15.20;72.40
43820;BME280;67762;52.476;6.046;2023-04-21T11:49:24;101395.53;;;15.13;72.35
43820;BME280;67762;52.476;6.046;2023-04-21T11:51:50;101388.06;;;15.01;72.80
43820;BME280;67762;52.476;6.046;2023-04-21T11:54:17;101396.06;;;14.86;73.54
43820;BME280;67762;52.476;6.046;2023-04-21T11:56:45;101390.44;;;14.73;73.43
43820;BME280;67762;52.476;6.046;2023-04-21T11:59:17;101395.28;;;14.47;74.08
43820;BME280;67762;52.476;6.046;2023-04-21T12:01:49;101395.22;;;14.24;74.31
43820;BME280;67762;52.476;6.046;2023-04-21T12:04:23;101387.88;;;14.10;74.99
43820;BME280;67762;52.476;6.046;2023-04-21T12:07:00;101389.56;;;14.03;75.33
43820;BME280;67762;52.476;6.046;2023-04-21T12:09:27;101387.75;;;13.95;75.79
43820;BME280;67762;52.476;6.046;2023-04-21T12:11:55;101377.91;;;13.88;76.04
43820;BME280;67762;52.476;6.046;2023-04-21T12:14:23;101374.22;;;13.81;76.44
43820;BME280;67762;52.476;6.046;2023-04-21T12:16:52;101371.91;;;13.70;76.61
43820;BME280;67762;52.476;6.046;2023-04-21T12:19:34;101357.66;;;13.61;77.29
43820;BME280;67762;52.476;6.046;2023-04-21T12:22:06;101350.16;;;13.57;77.30
43820;BME280;67762;52.476;6.046;2023-04-21T12:24:31;101353.47;;;13.59;77.78
43820;BME280;67762;52.476;6.046;2023-04-21T12:26:57;101343.56;;;13.67;78.56
43820;BME280;67762;52.476;6.046;2023-04-21T12:29:23;101344.06;;;13.71;78.60
43820;BME280;67762;52.476;6.046;2023-04-21T12:31:49;101339.19;;;13.82;78.55
43820;BME280;67762;52.476;6.046;2023-04-21T12:34:15;101336.28;;;13.92;78.58
43820;BME280;67762;52.476;6.046;2023-04-21T12:36:40;101332.38;;;14.02;78.77
43820;BME280;67762;52.476;6.046;2023-04-21T12:39:06;101329.00;;;14.08;78.94
43820;BME280;67762;52.476;6.046;2023-04-21T12:41:32;101325.97;;;14.12;78.74
43820;BME280;67762;52.476;6.046;2023-04-21T12:43:59;101321.75;;;14.17;78.85
43820;BME280;67762;52.476;6.046;2023-04-21T12:46:24;101317.38;;;14.24;79.00
43820;BME280;67762;52.476;6.046;2023-04-21T12:48:50;101314.63;;;14.40;78.89
43820;BME280;67762;52.476;6.046;2023-04-21T12:51:16;101304.41;;;14.58;78.79
43820;BME280;67762;52.476;6.046;2023-04-21T12:53:42;101304.97;;;14.77;78.21
43820;BME280;67762;52.476;6.046;2023-04-21T12:56:08;101302.56;;;15.04;78.04
43820;BME280;67762;52.476;6.046;2023-04-21T12:58:36;101306.53;;;15.46;77.76
43820;BME280;67762;52.476;6.046;2023-04-21T13:01:02;101304.44;;;15.85;77.30
43820;BME280;67762;52.476;6.046;2023-04-21T13:03:27;101296.41;;;16.06;76.92
43820;BME280;67762;52.476;6.046;2023-04-21T13:05:53;101292.22;;;16.39;77.24
43820;BME280;67762;52.476;6.046;2023-04-21T13:08:20;101291.25;;;16.62;76.04
43820;BME280;67762;52.476;6.046;2023-04-21T13:10:46;101293.44;;;16.73;76.00
43820;BME280;67762;52.476;6.046;2023-04-21T13:13:11;101286.69;;;16.83;76.19
43820;BME280;67762;52.476;6.046;2023-04-21T13:15:37;101284.44;;;16.87;75.65